Airfield :
LOGIN :

Register | Disclaimer

   EN    FR    IT 

 










Legend :    VFR   Marginal VFR   IFR   Intensive IFR   Very Intensive IFR
Visi :
Ceiling :
>= 8 km
>= 3000ft
5 to 8 km
1000 to 3000 ft
1500m to 5 km
500 to 1000 ft
800 to 1500m
200 to 500 ft
< 800m
< 200 ft
Symbols :   Thunderstorms  Fog  Heavy snow  Heavy precipitations  Wind > 20 kt
SIGMETs :     Misc.  Thunderstorms  Icing  Turbulence  Mountain Waves  Volcanic Ashes






- Airport Elevation : 1367 ft
- IATA code : FDH


EDNY - Friedrichshafen

CURRENT METAR :
  • 221120Z VRB03KT 9999 SCT044 14/05 Q1020

EXPIRED METARs :
  • 221050Z VRB04KT 9999 SCT044 15/06 Q1020
  • 221020Z VRB03KT 9999 FEW039 15/06 Q1020
  • 220950Z VRB03KT 9999 FEW036 15/07 Q1020
  • 220920Z 34003KT 9999 FEW036 14/06 Q1020
  • 220850Z VRB04KT CAVOK 13/05 Q1020

TAF TAF EDNY
Valid from the 22 at 12:00 until the 23 at 12:00 UTC


221100Z 2212/2312 33004KT 9999 FEW040
BECMG 2213/2215 03005KT



MET'MAP, your aeronautical weather chart ! - Copyright ORBIFLY December 2007 - Disclaimer

ORBIFLY MET'MAP TEAM :

Programming & Development : Alexandra Zaïnal
Concept & original design : Baudouin d'Aumeries
Assistance for programming : Marc-Olivier Méhu
Technical & hardware support : Manuel Goepfert

Contact : metmap@orbifly.com




SOURCES & CREDITS :

   NOAA